createdAt,value
2018-05-15T00:02:21.825Z,13.70
2018-05-15T00:04:49.957Z,13.70
2018-05-15T00:07:18.893Z,13.70
2018-05-15T00:09:47.065Z,13.70
2018-05-15T00:12:15.195Z,13.70
2018-05-15T00:14:44.092Z,13.70
2018-05-15T00:17:13.043Z,13.70
2018-05-15T00:19:41.196Z,13.70
2018-05-15T00:22:09.366Z,13.70
2018-05-15T00:24:37.526Z,13.70
2018-05-15T00:27:05.661Z,13.70
2018-05-15T00:29:33.821Z,13.70
2018-05-15T00:32:01.965Z,13.60
2018-05-15T00:34:30.122Z,13.60
2018-05-15T00:36:58.269Z,13.60
2018-05-15T00:39:27.170Z,13.60
2018-05-15T00:41:55.373Z,13.60
2018-05-15T00:44:23.503Z,13.60
2018-05-15T00:46:52.404Z,13.50
2018-05-15T00:49:21.326Z,13.60
2018-05-15T00:51:49.532Z,13.60
2018-05-15T00:54:18.380Z,13.50
2018-05-15T00:56:46.589Z,13.50
2018-05-15T00:59:14.894Z,13.60
2018-05-15T01:01:43.056Z,13.50
2018-05-15T01:04:11.197Z,13.50
2018-05-15T01:06:39.355Z,13.50
2018-05-15T01:09:07.504Z,13.40
2018-05-15T01:11:36.530Z,13.40
2018-05-15T01:14:04.644Z,13.40
2018-05-15T01:16:32.794Z,13.40
2018-05-15T01:19:00.950Z,13.40
2018-05-15T01:21:29.230Z,13.30
2018-05-15T01:23:57.372Z,13.30
2018-05-15T01:26:26.305Z,13.30
2018-05-15T01:28:54.459Z,13.30
2018-05-15T01:31:22.608Z,13.20
2018-05-15T01:33:50.765Z,13.20
2018-05-15T01:36:18.900Z,13.20
2018-05-15T01:38:47.055Z,13.20
2018-05-15T01:41:15.196Z,13.20
2018-05-15T01:43:44.113Z,13.20
2018-05-15T01:46:12.238Z,13.20
2018-05-15T01:48:40.452Z,13.10
2018-05-15T01:51:09.769Z,13.10
2018-05-15T01:53:37.949Z,13.10
2018-05-15T01:56:06.124Z,13.00
2018-05-15T01:58:34.308Z,13.00
2018-05-15T02:01:02.462Z,13.00
2018-05-15T02:03:30.606Z,13.00
2018-05-15T02:05:59.526Z,13.00
2018-05-15T02:08:27.734Z,13.00
2018-05-15T02:10:55.975Z,13.00
2018-05-15T02:13:24.150Z,12.90
2018-05-15T02:15:52.320Z,12.90
2018-05-15T02:18:20.492Z,12.90
2018-05-15T02:20:48.667Z,12.90
2018-05-15T02:23:16.874Z,12.90
2018-05-15T02:25:45.004Z,12.90
2018-05-15T02:28:13.200Z,12.90
2018-05-15T02:30:41.354Z,12.90
2018-05-15T02:33:09.540Z,12.90
2018-05-15T02:35:37.704Z,12.90
2018-05-15T02:38:05.904Z,12.90
2018-05-15T02:40:34.072Z,12.90
2018-05-15T02:43:02.233Z,12.90
2018-05-15T02:45:30.372Z,12.90
2018-05-15T02:47:59.301Z,12.90
2018-05-15T02:50:27.569Z,12.90
2018-05-15T02:52:55.718Z,12.90
2018-05-15T02:55:24.704Z,12.90
2018-05-15T02:57:53.612Z,12.80
2018-05-15T03:00:21.806Z,12.80
2018-05-15T03:02:49.952Z,12.80
2018-05-15T03:05:18.886Z,12.80
2018-05-15T03:07:47.024Z,12.80
2018-05-15T03:10:15.184Z,12.80
2018-05-15T03:12:44.097Z,12.80
2018-05-15T03:15:12.227Z,12.80
2018-05-15T03:17:40.379Z,12.80
2018-05-15T03:20:08.541Z,12.80
2018-05-15T03:22:36.714Z,12.80
2018-05-15T03:25:04.849Z,12.80
2018-05-15T03:27:33.753Z,12.80
2018-05-15T03:30:01.965Z,12.70
2018-05-15T03:32:30.244Z,12.70
2018-05-15T03:34:58.377Z,12.80
2018-05-15T03:37:26.539Z,12.80
2018-05-15T03:39:54.721Z,12.80
2018-05-15T03:42:23.014Z,12.80
2018-05-15T03:44:51.131Z,12.80
2018-05-15T03:47:19.272Z,12.80
2018-05-15T03:49:47.533Z,12.80
2018-05-15T03:52:15.729Z,12.80
2018-05-15T03:54:43.878Z,12.90
2018-05-15T03:57:12.049Z,12.90
2018-05-15T03:59:40.222Z,12.90
2018-05-15T04:02:21.183Z,12.90
2018-05-15T04:08:12.048Z,12.90
2018-05-15T04:10:40.188Z,12.90
2018-05-15T04:13:08.404Z,12.90
2018-05-15T04:15:36.541Z,12.90
2018-05-15T04:18:04.717Z,12.90
2018-05-15T04:20:32.877Z,12.90
2018-05-15T04:23:01.032Z,12.90
2018-05-15T04:25:29.948Z,12.90
2018-05-15T04:27:58.190Z,12.90
2018-05-15T04:30:26.292Z,13.00
2018-05-15T04:32:54.479Z,13.00
2018-05-15T04:35:22.745Z,13.10
2018-05-15T04:37:50.814Z,13.10
2018-05-15T04:40:18.994Z,13.10
2018-05-15T04:42:47.165Z,13.20
2018-05-15T04:45:15.317Z,13.20
2018-05-15T04:47:44.226Z,13.20
2018-05-15T04:50:13.145Z,13.30
2018-05-15T04:52:41.316Z,13.20
2018-05-15T04:55:09.452Z,13.30
2018-05-15T04:57:37.595Z,13.40
2018-05-15T05:00:05.816Z,13.40
2018-05-15T05:02:33.972Z,13.50
2018-05-15T05:05:02.877Z,13.50
2018-05-15T05:07:31.017Z,13.50
2018-05-15T05:09:59.225Z,13.60
2018-05-15T05:12:27.404Z,13.60
2018-05-15T05:14:55.548Z,13.60
2018-05-15T05:17:24.484Z,13.70
2018-05-15T05:19:52.620Z,13.70
2018-05-15T05:22:20.764Z,13.70
2018-05-15T05:24:48.990Z,13.80
2018-05-15T05:27:17.177Z,13.80
2018-05-15T05:29:45.257Z,13.80
2018-05-15T05:32:13.428Z,13.90
2018-05-15T05:34:41.606Z,13.90
2018-05-15T05:37:09.728Z,13.90
2018-05-15T05:39:38.636Z,14.00
2018-05-15T05:42:06.796Z,14.00
2018-05-15T05:44:35.824Z,14.10
2018-05-15T05:47:03.997Z,14.10
2018-05-15T05:49:32.167Z,14.20
2018-05-15T05:52:00.392Z,14.20
2018-05-15T05:54:28.603Z,14.30
2018-05-15T05:56:56.748Z,14.40
2018-05-15T05:59:25.684Z,14.50
2018-05-15T06:01:53.827Z,14.40
2018-05-15T06:04:22.029Z,14.40
2018-05-15T06:06:50.217Z,14.40
2018-05-15T06:09:18.376Z,14.40
2018-05-15T06:11:46.534Z,14.50
2018-05-15T06:14:14.709Z,14.60
2018-05-15T06:16:42.910Z,14.60
2018-05-15T06:19:11.175Z,14.60
2018-05-15T06:21:39.338Z,14.70
2018-05-15T06:24:07.508Z,14.70
2018-05-15T06:26:35.650Z,14.60
2018-05-15T06:29:04.558Z,14.80
2018-05-15T06:31:32.804Z,14.80
2018-05-15T06:34:00.964Z,14.90
2018-05-15T06:36:30.640Z,15.00
2018-05-15T06:38:58.814Z,15.00
2018-05-15T06:41:26.970Z,15.10
2018-05-15T06:43:55.107Z,15.10
2018-05-15T06:46:23.560Z,15.20
2018-05-15T06:48:51.728Z,15.30
2018-05-15T06:51:19.908Z,15.30
2018-05-15T06:53:48.268Z,15.30
2018-05-15T06:56:16.396Z,15.40
2018-05-15T06:58:44.621Z,15.40
2018-05-15T07:01:12.792Z,15.50
2018-05-15T07:03:40.948Z,15.50
2018-05-15T07:06:09.096Z,15.60
2018-05-15T07:08:38.048Z,15.70
2018-05-15T07:11:06.200Z,15.70
2018-05-15T07:13:34.876Z,15.80
2018-05-15T07:16:03.038Z,15.90
2018-05-15T07:18:31.236Z,15.90
2018-05-15T07:20:59.396Z,15.90
2018-05-15T07:23:27.684Z,15.90
2018-05-15T07:25:55.823Z,16.00
2018-05-15T07:28:24.748Z,16.00
2018-05-15T07:30:52.951Z,16.00
2018-05-15T07:33:22.736Z,16.10
2018-05-15T07:35:50.921Z,16.10
2018-05-15T07:38:19.082Z,16.20
2018-05-15T07:40:47.196Z,16.20
2018-05-15T07:43:15.421Z,16.30
2018-05-15T07:45:43.708Z,16.30
2018-05-15T07:48:11.852Z,16.40
2018-05-15T07:50:40.766Z,16.70
2018-05-15T07:53:08.944Z,16.70
2018-05-15T07:55:37.219Z,16.90
2018-05-15T07:58:05.345Z,17.10
2018-05-15T08:00:33.489Z,17.30
2018-05-15T08:03:01.844Z,17.50
2018-05-15T08:05:29.999Z,17.60
2018-05-15T08:07:58.141Z,17.80
2018-05-15T08:10:26.363Z,17.90
2018-05-15T08:12:54.533Z,18.00
2018-05-15T08:15:22.701Z,18.10
2018-05-15T08:17:50.835Z,18.20
2018-05-15T08:20:18.969Z,18.40
2018-05-15T08:22:47.129Z,18.40
2018-05-15T08:25:15.409Z,18.40
2018-05-15T08:27:43.547Z,18.50
2018-05-15T08:30:11.757Z,18.20
2018-05-15T08:32:39.940Z,18.20
2018-05-15T08:35:08.207Z,18.20
2018-05-15T08:37:36.423Z,18.20
2018-05-15T08:40:04.557Z,18.20
2018-05-15T08:42:32.741Z,18.10
2018-05-15T08:45:00.889Z,18.10
2018-05-15T08:47:29.033Z,18.10
2018-05-15T08:49:57.985Z,18.10
2018-05-15T08:52:26.139Z,18.10
2018-05-15T08:54:54.305Z,18.10
2018-05-15T08:57:22.437Z,18.10
2018-05-15T08:59:50.661Z,18.20
2018-05-15T09:02:18.825Z,18.20
2018-05-15T09:04:46.983Z,18.20
2018-05-15T09:07:15.916Z,18.20
2018-05-15T09:09:44.061Z,18.20
2018-05-15T09:12:12.197Z,18.20
2018-05-15T09:14:40.397Z,18.20
2018-05-15T09:17:09.439Z,18.20
2018-05-15T09:19:37.576Z,18.20
2018-05-15T09:22:05.748Z,18.20
2018-05-15T09:24:33.900Z,18.30
2018-05-15T09:27:02.823Z,18.30
2018-05-15T09:29:30.992Z,18.30
2018-05-15T09:31:59.172Z,18.20
2018-05-15T09:34:27.288Z,18.30
2018-05-15T09:36:55.428Z,18.30
2018-05-15T09:39:23.566Z,18.40
2018-05-15T09:41:52.481Z,18.40
2018-05-15T09:44:20.629Z,18.40
2018-05-15T09:46:49.622Z,18.40
2018-05-15T09:49:17.673Z,18.40
2018-05-15T09:51:47.432Z,18.50
2018-05-15T09:54:15.580Z,18.50
2018-05-15T09:56:43.732Z,18.50
2018-05-15T09:59:12.772Z,18.60
2018-05-15T10:01:40.915Z,18.60
2018-05-15T10:04:09.940Z,18.80
2018-05-15T10:06:38.112Z,18.80
2018-05-15T10:09:06.289Z,18.90
2018-05-15T10:11:34.444Z,18.90
2018-05-15T10:14:02.598Z,18.90
2018-05-15T10:16:31.528Z,19.10
2018-05-15T10:18:59.670Z,19.10
2018-05-15T10:21:28.565Z,19.30
2018-05-15T10:23:57.480Z,19.30
2018-05-15T10:26:25.663Z,19.30
2018-05-15T10:28:53.829Z,19.40
2018-05-15T10:31:21.970Z,19.50
2018-05-15T10:33:50.989Z,19.60
2018-05-15T10:36:19.162Z,19.60
2018-05-15T10:38:47.312Z,19.70
2018-05-15T10:41:16.233Z,19.70
2018-05-15T10:43:44.441Z,19.70
2018-05-15T10:46:12.579Z,19.80
2018-05-15T10:48:40.858Z,19.80
2018-05-15T10:51:08.974Z,19.90
2018-05-15T10:53:37.127Z,20.10
2018-05-15T10:56:06.507Z,20.30
2018-05-15T10:58:34.795Z,20.30
2018-05-15T11:01:03.059Z,20.40
2018-05-15T11:03:31.336Z,20.50
2018-05-15T11:05:59.454Z,20.50
2018-05-15T11:08:27.607Z,20.60
2018-05-15T11:10:55.749Z,20.70
2018-05-15T11:13:24.031Z,20.80
2018-05-15T11:15:52.199Z,20.90
2018-05-15T11:18:32.186Z,21.00
2018-05-15T11:21:12.257Z,21.10
2018-05-15T11:23:52.353Z,21.20
2018-05-15T11:26:20.525Z,21.20
2018-05-15T11:28:48.674Z,21.30
2018-05-15T11:31:17.949Z,21.40
2018-05-15T11:33:46.119Z,21.40
2018-05-15T11:36:14.273Z,21.50
2018-05-15T11:38:42.423Z,21.60
2018-05-15T11:41:10.549Z,21.70
2018-05-15T11:43:38.779Z,21.80
2018-05-15T11:46:06.917Z,21.80
2018-05-15T11:48:36.406Z,21.90
2018-05-15T11:51:04.785Z,21.90
2018-05-15T11:53:32.249Z,21.90
2018-05-15T11:56:00.511Z,21.90
2018-05-15T11:58:28.625Z,22.00
2018-05-15T12:00:56.795Z,22.10
2018-05-15T12:03:24.991Z,22.10
2018-05-15T12:05:53.147Z,22.20
2018-05-15T12:08:21.430Z,22.20
2018-05-15T12:10:49.507Z,22.20
2018-05-15T12:13:17.709Z,22.20
2018-05-15T12:15:46.309Z,22.20
2018-05-15T12:18:14.529Z,22.20
2018-05-15T12:20:42.710Z,22.20
2018-05-15T12:23:10.913Z,22.30
2018-05-15T12:25:39.044Z,22.40
2018-05-15T12:28:07.312Z,22.50
2018-05-15T12:30:35.353Z,22.50
2018-05-15T12:33:03.493Z,22.50
2018-05-15T12:35:31.631Z,22.60
2018-05-15T12:38:00.555Z,22.70
2018-05-15T12:40:28.681Z,22.70
2018-05-15T12:42:57.701Z,22.90
2018-05-15T12:45:25.843Z,22.80
2018-05-15T12:47:54.828Z,23.10
2018-05-15T12:50:22.973Z,23.10
2018-05-15T12:52:51.098Z,23.20
2018-05-15T12:55:20.012Z,23.30
2018-05-15T12:57:48.176Z,23.30
2018-05-15T13:00:16.375Z,23.30
2018-05-15T13:02:44.557Z,23.40
2018-05-15T13:05:12.821Z,23.50
2018-05-15T13:07:40.969Z,23.50
2018-05-15T13:10:09.080Z,23.50
2018-05-15T13:12:37.322Z,23.40
2018-05-15T13:15:05.456Z,23.50
2018-05-15T13:17:33.577Z,23.60
2018-05-15T13:20:01.724Z,23.60
2018-05-15T13:22:30.652Z,23.80
2018-05-15T13:24:58.841Z,23.70
2018-05-15T13:27:27.000Z,23.80
2018-05-15T13:29:55.204Z,23.80
2018-05-15T13:32:23.331Z,23.90
2018-05-15T13:34:51.507Z,24.00
2018-05-15T13:37:19.654Z,24.20
2018-05-15T13:39:48.605Z,24.50
2018-05-15T13:42:16.755Z,24.50
2018-05-15T13:44:44.937Z,24.50
2018-05-15T13:47:13.110Z,24.40
2018-05-15T13:49:41.248Z,24.40
2018-05-15T13:52:10.161Z,24.30
2018-05-15T13:54:38.285Z,24.30
2018-05-15T13:57:06.502Z,24.30
2018-05-15T13:59:35.515Z,24.40
2018-05-15T14:02:03.633Z,24.30
2018-05-15T14:04:31.783Z,24.50
2018-05-15T14:07:00.049Z,24.60
2018-05-15T14:09:28.222Z,24.70
2018-05-15T14:11:56.374Z,24.90
2018-05-15T14:14:24.529Z,25.20
2018-05-15T14:16:53.421Z,25.40
2018-05-15T14:19:22.341Z,25.50
2018-05-15T14:21:50.461Z,25.40
2018-05-15T14:24:18.585Z,25.50
2018-05-15T14:26:46.723Z,25.60
2018-05-15T14:29:15.755Z,25.70
2018-05-15T14:31:43.865Z,25.60
2018-05-15T14:34:12.042Z,25.70
2018-05-15T14:36:40.163Z,25.80
2018-05-15T14:39:08.341Z,25.80
2018-05-15T14:44:35.540Z,25.80
2018-05-15T14:47:03.795Z,25.80
2018-05-15T14:49:31.916Z,25.80
2018-05-15T14:52:00.144Z,25.80
2018-05-15T14:54:28.289Z,25.90
2018-05-15T14:56:57.197Z,26.20
2018-05-15T14:59:26.612Z,26.40
2018-05-15T15:01:54.730Z,26.30
2018-05-15T15:04:22.902Z,26.40
2018-05-15T15:06:51.013Z,26.40
2018-05-15T15:09:19.153Z,26.50
2018-05-15T15:11:47.309Z,26.40
2018-05-15T15:14:15.444Z,26.30
2018-05-15T15:16:43.624Z,26.20
2018-05-15T15:19:11.740Z,26.00
2018-05-15T15:21:40.077Z,25.90
2018-05-15T15:24:08.238Z,25.80
2018-05-15T15:26:36.427Z,25.60
2018-05-15T15:29:04.587Z,25.60
2018-05-15T15:31:32.730Z,25.50
2018-05-15T15:34:00.884Z,25.60
2018-05-15T15:36:29.126Z,25.70
2018-05-15T15:38:57.313Z,25.90
2018-05-15T15:41:25.570Z,26.10
2018-05-15T15:43:53.886Z,26.30
2018-05-15T15:46:21.994Z,26.50
2018-05-15T15:48:50.894Z,26.40
2018-05-15T15:51:19.046Z,26.40
2018-05-15T15:53:47.271Z,26.40
2018-05-15T15:56:15.407Z,26.30
2018-05-15T15:58:44.427Z,26.30
2018-05-15T16:01:12.705Z,26.20
2018-05-15T16:03:40.980Z,26.30
2018-05-15T16:06:09.096Z,26.00
2018-05-15T16:08:37.264Z,25.90
2018-05-15T16:11:05.494Z,26.00
2018-05-15T16:13:33.635Z,26.10
2018-05-15T16:16:02.668Z,26.30
2018-05-15T16:18:30.946Z,26.20
2018-05-15T16:20:59.073Z,26.30
2018-05-15T16:23:27.206Z,26.40
2018-05-15T16:25:55.339Z,26.30
2018-05-15T16:28:24.255Z,26.30
2018-05-15T16:30:52.454Z,26.30
2018-05-15T16:33:20.576Z,26.30
2018-05-15T16:35:48.699Z,26.20
2018-05-15T16:38:16.863Z,26.30
2018-05-15T16:40:45.128Z,26.30
2018-05-15T16:43:13.297Z,26.40
2018-05-15T16:45:41.462Z,26.50
2018-05-15T16:48:09.583Z,26.50
2018-05-15T16:50:37.737Z,26.60
2018-05-15T16:53:05.845Z,26.60
2018-05-15T16:55:34.069Z,26.50
2018-05-15T16:58:02.309Z,26.30
2018-05-15T17:00:31.229Z,26.10
2018-05-15T17:02:59.373Z,26.10
2018-05-15T17:05:28.290Z,26.10
2018-05-15T17:07:56.493Z,26.10
2018-05-15T17:10:24.673Z,26.10
2018-05-15T17:12:52.796Z,26.10
2018-05-15T17:15:21.682Z,25.90
2018-05-15T17:17:50.604Z,25.90
2018-05-15T17:20:18.736Z,25.90
2018-05-15T17:22:47.654Z,26.00
2018-05-15T17:25:15.840Z,25.90
2018-05-15T17:27:44.120Z,26.00
2018-05-15T17:30:12.236Z,26.00
2018-05-15T17:32:40.396Z,25.90
2018-05-15T17:35:08.548Z,25.90
2018-05-15T17:37:36.688Z,25.90
2018-05-15T17:40:05.606Z,25.90
2018-05-15T17:42:33.776Z,25.90
2018-05-15T17:45:01.924Z,25.90
2018-05-15T17:47:30.861Z,25.80
2018-05-15T17:49:58.944Z,25.70
2018-05-15T17:52:27.101Z,25.80
2018-05-15T17:54:55.367Z,25.70
2018-05-15T17:57:23.532Z,25.70
2018-05-15T17:59:51.705Z,25.70
2018-05-15T18:02:20.684Z,25.60
2018-05-15T18:04:48.881Z,25.60
2018-05-15T18:07:17.156Z,25.60
2018-05-15T18:09:45.333Z,25.50
2018-05-15T18:12:13.505Z,25.40
2018-05-15T18:14:41.628Z,25.40
2018-05-15T18:17:09.759Z,25.30
2018-05-15T18:19:37.892Z,25.30
2018-05-15T18:22:06.819Z,25.30
2018-05-15T18:24:34.989Z,25.30
2018-05-15T18:27:03.128Z,25.20
2018-05-15T18:29:31.338Z,25.20
2018-05-15T18:31:59.615Z,25.10
2018-05-15T18:34:27.718Z,25.10
2018-05-15T18:36:55.880Z,25.10
2018-05-15T18:39:24.034Z,25.10
2018-05-15T18:44:45.580Z,25.00
2018-05-15T18:47:13.850Z,24.90
2018-05-15T18:49:41.981Z,24.80
2018-05-15T18:52:10.120Z,24.80
2018-05-15T18:54:38.281Z,24.60
2018-05-15T18:57:06.443Z,24.50
2018-05-15T18:59:35.418Z,24.30
2018-05-15T19:02:03.623Z,24.30
2018-05-15T19:04:31.749Z,24.20
2018-05-15T19:07:00.652Z,24.00
2018-05-15T19:09:29.636Z,23.80
2018-05-15T19:11:58.666Z,23.70
2018-05-15T19:14:27.042Z,23.70
2018-05-15T19:16:55.152Z,23.60
2018-05-15T19:19:23.394Z,23.50
2018-05-15T19:21:51.421Z,23.40
2018-05-15T19:24:20.341Z,23.20
2018-05-15T19:26:48.468Z,23.20
2018-05-15T19:29:16.669Z,23.10
2018-05-15T19:31:45.606Z,22.80
2018-05-15T19:34:19.488Z,22.80
2018-05-15T19:36:53.268Z,22.70
2018-05-15T19:39:28.001Z,22.60
2018-05-15T19:42:08.804Z,22.50
2018-05-15T19:44:36.977Z,22.40
2018-05-15T19:47:05.151Z,22.40
2018-05-15T19:49:33.416Z,22.20
2018-05-15T19:52:01.614Z,22.10
2018-05-15T19:54:40.738Z,22.10
2018-05-15T19:57:08.848Z,22.00
2018-05-15T19:59:37.084Z,21.90
2018-05-15T20:02:08.042Z,21.80
2018-05-15T20:04:36.294Z,21.70
2018-05-15T20:07:04.430Z,21.60
2018-05-15T20:09:33.324Z,21.50
2018-05-15T20:12:02.272Z,21.40
2018-05-15T20:14:30.512Z,21.40
2018-05-15T20:16:58.640Z,21.30
2018-05-15T20:19:26.793Z,21.20
2018-05-15T20:21:54.922Z,21.20
2018-05-15T20:24:23.863Z,20.90
2018-05-15T20:26:51.992Z,20.90
2018-05-15T20:29:20.185Z,20.90
2018-05-15T20:31:48.323Z,20.80
2018-05-15T20:34:17.228Z,20.70
2018-05-15T20:36:46.195Z,20.60
2018-05-15T20:39:14.262Z,20.60
2018-05-15T20:41:42.489Z,20.50
2018-05-15T20:44:10.653Z,20.40
2018-05-15T20:46:38.827Z,20.40
2018-05-15T20:49:06.944Z,20.30
2018-05-15T20:51:35.078Z,20.20
2018-05-15T20:54:03.258Z,20.20
2018-05-15T20:56:31.423Z,20.10
2018-05-15T20:58:59.551Z,20.00
2018-05-15T21:01:27.734Z,19.90
2018-05-15T21:03:55.939Z,19.90
2018-05-15T21:06:24.232Z,19.80
2018-05-15T21:08:52.345Z,19.70
2018-05-15T21:11:20.577Z,19.70
2018-05-15T21:13:48.689Z,19.60
2018-05-15T21:16:16.930Z,19.60
2018-05-15T21:18:45.074Z,19.50
2018-05-15T21:21:13.959Z,19.50
2018-05-15T21:23:42.961Z,19.40
2018-05-15T21:26:11.261Z,19.40
2018-05-15T21:28:39.433Z,19.40
2018-05-15T21:31:07.574Z,19.30
2018-05-15T21:33:36.549Z,19.30
2018-05-15T21:36:04.763Z,19.30
2018-05-15T21:38:32.891Z,19.30
2018-05-15T21:41:01.029Z,19.30
2018-05-15T21:43:29.213Z,19.30
2018-05-15T21:45:57.337Z,19.30
2018-05-15T21:48:26.228Z,19.20
2018-05-15T21:50:55.256Z,19.10
2018-05-15T21:53:23.398Z,19.10
2018-05-15T21:55:52.399Z,19.10
2018-05-15T21:58:20.575Z,19.00
2018-05-15T22:00:48.713Z,19.10
2018-05-15T22:03:18.383Z,19.00
2018-05-15T22:05:46.569Z,19.00
2018-05-15T22:08:14.693Z,19.00
2018-05-15T22:10:43.589Z,18.90
2018-05-15T22:13:24.341Z,18.90
2018-05-15T22:16:05.349Z,18.80
2018-05-15T22:18:45.609Z,18.80
2018-05-15T22:21:25.551Z,18.80
2018-05-15T22:23:53.216Z,18.70
2018-05-15T22:26:21.387Z,18.70
2018-05-15T22:28:49.513Z,18.60
2018-05-15T22:31:17.672Z,18.60
2018-05-15T22:33:45.821Z,18.60
2018-05-15T22:36:13.972Z,18.50
2018-05-15T22:38:42.853Z,18.40
2018-05-15T22:41:11.764Z,18.40
2018-05-15T22:43:39.913Z,18.40
2018-05-15T22:46:08.820Z,18.30
2018-05-15T22:48:36.959Z,18.30
2018-05-15T22:51:05.089Z,18.30
2018-05-15T22:53:33.254Z,18.30
2018-05-15T22:56:01.427Z,18.30
2018-05-15T22:58:29.588Z,18.30
2018-05-15T23:00:57.722Z,18.20
2018-05-15T23:03:25.876Z,18.10
2018-05-15T23:05:54.017Z,18.10
2018-05-15T23:08:22.272Z,18.10
2018-05-15T23:10:51.188Z,18.00
2018-05-15T23:13:19.315Z,18.00
2018-05-15T23:15:48.228Z,17.90
2018-05-15T23:18:16.272Z,17.90
2018-05-15T23:20:44.400Z,17.80
2018-05-15T23:23:12.568Z,17.70
2018-05-15T23:25:40.701Z,17.70
2018-05-15T23:28:08.818Z,17.70
2018-05-15T23:30:36.980Z,17.70
2018-05-15T23:33:05.121Z,17.60
2018-05-15T23:35:33.261Z,17.60
2018-05-15T23:38:01.380Z,17.50
2018-05-15T23:40:30.268Z,17.40
2018-05-15T23:42:59.280Z,17.40
2018-05-15T23:45:27.446Z,17.40
2018-05-15T23:47:56.344Z,17.30
2018-05-15T23:50:24.507Z,17.30
2018-05-15T23:52:53.421Z,17.20
2018-05-15T23:55:21.597Z,17.20
2018-05-15T23:57:49.719Z,17.20
